Extreme weather reports worldwide

Snow

Station
 
Location
 
Name
 
Wind
Knots
Gust
Knots
Vis
SM
Temp/Dew
C
Baro
inHg
METAR
 
YYH CYYH Taloyoak, CA Taloyoak Airport 16 21 0.63 0/0 29.67 CYYH 262237Z 08016G21KT 5/8SM -SN VV005 00/M00 A2967 RMK SN8 SLP050
YDB CYDB Burwash, CA Burwash Airport 9 17 2.5 0/-4 29.65 CYDB 262241Z 31009G17KT 2 1/2SM -SN FEW027 OVC039 M00/M04 A2965 RMK SC2NS6 SLP081
TNM SCRM Isla Rey Jorge, AQ Teniente Rodolfo Marsh Martin Base 30 0.5 0/0 29.11 SCRM 262200Z 03030KT 0800 -RASN FG OVC003 00/00 Q0986 NOSIG
YBB CYBB Kugaaruk, CA Kugaaruk Airport 14 1.5 1/0 29.70 CYBB 262200Z 10014KT 1 1/2SM -SN BR VV007 01/00 A2970 RMK HZ8 SLP060
YUB CYUB Tuktoyaktuk, CA Tuktoyaktuk Airport 13 8 1/-1 29.80 CYUB 262210Z 29013KT 8SM -SN BKN014 01/M01 A2980 RMK SC7 SLP093

Station
 
Location
 
Name
 
Wind
Knots
Gust
Knots
Vis
SM
Temp/Dew
C
Baro
inHg
METAR
 
PYJ UERP Yakutia, RU Polyarny Airport 10 6.21 -4/-8 30.27 UERP 262200Z 03005MPS 9999 -SHSN BKN010 BKN018CB M04/M08 Q1025 NOSIG RMK QFE725
YXQ CYXQ Beaver Creek, CA Beaver Creek Airport 5 5 -2/-3 29.74 CYXQ 262200Z 27005KT 5SM -SN SCT010 OVC020 M02/M03 A2974 RMK SF3SC5 /1.6 CM/1.6 MWE/LAST STFD OBS/NXT 271600Z/ SLP111
YCK CYVL Colville Lake, CA Tommy Kochon Airport 5 5 1/1 29.78 CYVL 262236Z AUTO 29005KT 5SM -SN BKN013 BKN040 OVC130 01/01 A2978 RMK SLP105
RDB PADG Red Dog, US Red Dog Airport 4 0.25 0/-1 29.69 PADG 262155Z 09004KT 1/4SM -SN FZFG BKN005 OVC010 M00/M01 A2969